sensor_id;sensor_type;location;lat;lon;timestamp;pressure;altitude;pressure_sealevel;temperature;humidity
2681;BME280;1350;42.134;24.708;2023-04-15T00:00:09;98667.88;;;13.00;100.00
2681;BME280;1350;42.134;24.708;2023-04-15T00:02:36;98663.81;;;12.95;100.00
2681;BME280;1350;42.134;24.708;2023-04-15T00:05:04;98659.56;;;12.81;100.00
2681;BME280;1350;42.134;24.708;2023-04-15T00:07:32;98651.47;;;12.94;100.00
2681;BME280;1350;42.134;24.708;2023-04-15T00:09:59;98658.25;;;12.87;100.00
2681;BME280;1350;42.134;24.708;2023-04-15T00:12:26;98658.84;;;12.90;100.00
2681;BME280;1350;42.134;24.708;2023-04-15T00:14:53;98651.41;;;12.72;100.00
2681;BME280;1350;42.134;24.708;2023-04-15T00:17:21;98669.88;;;12.97;100.00
2681;BME280;1350;42.134;24.708;2023-04-15T00:19:48;98675.50;;;13.05;100.00
2681;BME280;1350;42.134;24.708;2023-04-15T00:22:14;98675.94;;;12.99;100.00
2681;BME280;1350;42.134;24.708;2023-04-15T00:24:43;98685.28;;;12.81;100.00
2681;BME280;1350;42.134;24.708;2023-04-15T00:27:09;98679.34;;;12.66;100.00
2681;BME280;1350;42.134;24.708;2023-04-15T00:29:36;98677.31;;;12.70;100.00
2681;BME280;1350;42.134;24.708;2023-04-15T00:32:03;98678.13;;;12.70;100.00
2681;BME280;1350;42.134;24.708;2023-04-15T00:34:32;98675.63;;;12.80;100.00
2681;BME280;1350;42.134;24.708;2023-04-15T00:36:58;98660.53;;;12.80;100.00
2681;BME280;1350;42.134;24.708;2023-04-15T00:39:25;98655.28;;;12.68;100.00
2681;BME280;1350;42.134;24.708;2023-04-15T00:41:54;98667.28;;;12.84;100.00
2681;BME280;1350;42.134;24.708;2023-04-15T00:44:21;98665.72;;;12.82;100.00
2681;BME280;1350;42.134;24.708;2023-04-15T00:46:50;98663.69;;;12.85;100.00
2681;BME280;1350;42.134;24.708;2023-04-15T00:49:17;98662.69;;;12.75;100.00
2681;BME280;1350;42.134;24.708;2023-04-15T00:51:44;98659.56;;;12.47;100.00
2681;BME280;1350;42.134;24.708;2023-04-15T00:54:11;98655.22;;;12.57;100.00
2681;BME280;1350;42.134;24.708;2023-04-15T00:56:38;98667.25;;;12.62;100.00
2681;BME280;1350;42.134;24.708;2023-04-15T00:59:06;98673.19;;;12.42;100.00
2681;BME280;1350;42.134;24.708;2023-04-15T01:01:34;98669.31;;;12.23;100.00
2681;BME280;1350;42.134;24.708;2023-04-15T01:04:01;98664.47;;;12.17;100.00
2681;BME280;1350;42.134;24.708;2023-04-15T01:06:29;98656.19;;;12.09;100.00
2681;BME280;1350;42.134;24.708;2023-04-15T01:08:57;98649.34;;;11.93;100.00
2681;BME280;1350;42.134;24.708;2023-04-15T01:11:24;98641.53;;;11.79;100.00
2681;BME280;1350;42.134;24.708;2023-04-15T01:13:51;98637.53;;;11.74;100.00
2681;BME280;1350;42.134;24.708;2023-04-15T01:16:19;98645.41;;;11.63;100.00
2681;BME280;1350;42.134;24.708;2023-04-15T01:18:46;98661.75;;;11.57;100.00
2681;BME280;1350;42.134;24.708;2023-04-15T01:21:13;98667.59;;;11.62;100.00
2681;BME280;1350;42.134;24.708;2023-04-15T01:23:39;98670.25;;;11.74;100.00
2681;BME280;1350;42.134;24.708;2023-04-15T01:26:08;98671.41;;;11.70;100.00
2681;BME280;1350;42.134;24.708;2023-04-15T01:28:35;98682.13;;;11.69;100.00
2681;BME280;1350;42.134;24.708;2023-04-15T01:31:06;98675.34;;;11.52;100.00
2681;BME280;1350;42.134;24.708;2023-04-15T01:33:33;98679.81;;;11.64;100.00
2681;BME280;1350;42.134;24.708;2023-04-15T01:36:00;98674.38;;;11.53;100.00
2681;BME280;1350;42.134;24.708;2023-04-15T01:38:27;98658.88;;;11.47;100.00
2681;BME280;1350;42.134;24.708;2023-04-15T01:40:55;98665.47;;;11.54;100.00
2681;BME280;1350;42.134;24.708;2023-04-15T01:43:24;98672.69;;;11.40;100.00
2681;BME280;1350;42.134;24.708;2023-04-15T01:45:50;98681.09;;;11.21;100.00
2681;BME280;1350;42.134;24.708;2023-04-15T01:48:17;98684.94;;;11.17;100.00
2681;BME280;1350;42.134;24.708;2023-04-15T01:50:44;98696.91;;;11.35;100.00
2681;BME280;1350;42.134;24.708;2023-04-15T01:53:11;98699.34;;;11.26;100.00
2681;BME280;1350;42.134;24.708;2023-04-15T01:55:38;98703.47;;;11.42;100.00
2681;BME280;1350;42.134;24.708;2023-04-15T01:58:05;98714.09;;;11.42;100.00
2681;BME280;1350;42.134;24.708;2023-04-15T02:00:33;98711.16;;;11.34;100.00
2681;BME280;1350;42.134;24.708;2023-04-15T02:03:00;98721.44;;;11.26;100.00
2681;BME280;1350;42.134;24.708;2023-04-15T02:05:27;98730.56;;;11.10;100.00
2681;BME280;1350;42.134;24.708;2023-04-15T02:07:54;98720.94;;;10.95;100.00
2681;BME280;1350;42.134;24.708;2023-04-15T02:10:20;98715.16;;;11.02;100.00
2681;BME280;1350;42.134;24.708;2023-04-15T02:12:47;98711.66;;;11.02;100.00
2681;BME280;1350;42.134;24.708;2023-04-15T02:15:14;98715.66;;;11.07;100.00
2681;BME280;1350;42.134;24.708;2023-04-15T02:17:42;98713.22;;;11.04;100.00
2681;BME280;1350;42.134;24.708;2023-04-15T02:20:15;98708.69;;;11.06;100.00
2681;BME280;1350;42.134;24.708;2023-04-15T02:22:42;98714.75;;;11.21;100.00
2681;BME280;1350;42.134;24.708;2023-04-15T02:25:09;98712.00;;;11.22;100.00
2681;BME280;1350;42.134;24.708;2023-04-15T02:27:38;98704.09;;;10.96;100.00
2681;BME280;1350;42.134;24.708;2023-04-15T02:30:06;98706.22;;;10.91;100.00
2681;BME280;1350;42.134;24.708;2023-04-15T02:32:33;98707.59;;;10.96;100.00
2681;BME280;1350;42.134;24.708;2023-04-15T02:35:04;98707.28;;;10.88;100.00
2681;BME280;1350;42.134;24.708;2023-04-15T02:37:32;98706.09;;;10.92;100.00
2681;BME280;1350;42.134;24.708;2023-04-15T02:40:01;98712.47;;;10.90;100.00
2681;BME280;1350;42.134;24.708;2023-04-15T02:42:29;98714.81;;;10.94;100.00
2681;BME280;1350;42.134;24.708;2023-04-15T02:44:56;98714.94;;;11.05;100.00
2681;BME280;1350;42.134;24.708;2023-04-15T02:47:23;98713.13;;;11.18;100.00
2681;BME280;1350;42.134;24.708;2023-04-15T02:49:49;98717.16;;;11.36;100.00
2681;BME280;1350;42.134;24.708;2023-04-15T02:52:17;98726.53;;;11.29;100.00
2681;BME280;1350;42.134;24.708;2023-04-15T02:54:44;98725.25;;;11.10;100.00
2681;BME280;1350;42.134;24.708;2023-04-15T02:57:11;98736.59;;;11.12;100.00
2681;BME280;1350;42.134;24.708;2023-04-15T02:59:38;98727.94;;;10.83;100.00
2681;BME280;1350;42.134;24.708;2023-04-15T03:02:05;98736.47;;;10.88;100.00
2681;BME280;1350;42.134;24.708;2023-04-15T03:04:32;98733.28;;;10.96;100.00
2681;BME280;1350;42.134;24.708;2023-04-15T03:07:00;98728.63;;;10.99;100.00
2681;BME280;1350;42.134;24.708;2023-04-15T03:09:28;98707.19;;;11.02;100.00
2681;BME280;1350;42.134;24.708;2023-04-15T03:11:55;98702.41;;;10.82;100.00
2681;BME280;1350;42.134;24.708;2023-04-15T03:14:21;98711.34;;;10.67;100.00
2681;BME280;1350;42.134;24.708;2023-04-15T03:16:48;98713.84;;;10.83;100.00
2681;BME280;1350;42.134;24.708;2023-04-15T03:19:16;98725.41;;;10.82;100.00
2681;BME280;1350;42.134;24.708;2023-04-15T03:21:43;98730.31;;;10.61;100.00
2681;BME280;1350;42.134;24.708;2023-04-15T03:24:10;98735.00;;;10.58;100.00
2681;BME280;1350;42.134;24.708;2023-04-15T03:26:38;98734.13;;;10.57;100.00
2681;BME280;1350;42.134;24.708;2023-04-15T03:29:04;98732.09;;;10.48;100.00
2681;BME280;1350;42.134;24.708;2023-04-15T03:31:31;98744.59;;;9.91;100.00
2681;BME280;1350;42.134;24.708;2023-04-15T03:33:58;98753.47;;;10.18;100.00
2681;BME280;1350;42.134;24.708;2023-04-15T03:36:24;98763.84;;;10.36;100.00
2681;BME280;1350;42.134;24.708;2023-04-15T03:38:51;98763.50;;;10.54;100.00
2681;BME280;1350;42.134;24.708;2023-04-15T03:41:18;98797.09;;;10.54;100.00
2681;BME280;1350;42.134;24.708;2023-04-15T03:43:46;98783.38;;;10.47;100.00
2681;BME280;1350;42.134;24.708;2023-04-15T03:46:13;98780.25;;;10.55;100.00
2681;BME280;1350;42.134;24.708;2023-04-15T03:48:39;98781.47;;;10.49;100.00
2681;BME280;1350;42.134;24.708;2023-04-15T03:51:06;98794.13;;;10.58;100.00
2681;BME280;1350;42.134;24.708;2023-04-15T03:53:33;98800.41;;;10.57;100.00
2681;BME280;1350;42.134;24.708;2023-04-15T03:56:00;98801.78;;;10.36;100.00
2681;BME280;1350;42.134;24.708;2023-04-15T03:58:26;98799.84;;;10.52;100.00
2681;BME280;1350;42.134;24.708;2023-04-15T04:00:54;98804.47;;;10.49;100.00
2681;BME280;1350;42.134;24.708;2023-04-15T04:03:21;98801.81;;;10.49;100.00
2681;BME280;1350;42.134;24.708;2023-04-15T04:05:48;98801.19;;;10.45;100.00
2681;BME280;1350;42.134;24.708;2023-04-15T04:08:15;98800.22;;;10.46;100.00
2681;BME280;1350;42.134;24.708;2023-04-15T04:10:43;98810.16;;;10.43;100.00
2681;BME280;1350;42.134;24.708;2023-04-15T04:13:10;98802.28;;;10.55;100.00
2681;BME280;1350;42.134;24.708;2023-04-15T04:15:37;98814.84;;;10.39;100.00
2681;BME280;1350;42.134;24.708;2023-04-15T04:18:05;98814.16;;;10.50;100.00
2681;BME280;1350;42.134;24.708;2023-04-15T04:20:32;98816.00;;;10.62;100.00
2681;BME280;1350;42.134;24.708;2023-04-15T04:22:59;98812.94;;;10.68;100.00
2681;BME280;1350;42.134;24.708;2023-04-15T04:25:26;98822.50;;;10.44;100.00
2681;BME280;1350;42.134;24.708;2023-04-15T04:27:52;98825.34;;;10.41;100.00
2681;BME280;1350;42.134;24.708;2023-04-15T04:30:19;98813.16;;;10.65;100.00
2681;BME280;1350;42.134;24.708;2023-04-15T04:32:46;98830.22;;;11.26;100.00
2681;BME280;1350;42.134;24.708;2023-04-15T04:35:14;98827.56;;;11.90;100.00
2681;BME280;1350;42.134;24.708;2023-04-15T04:37:41;98822.31;;;12.27;100.00
2681;BME280;1350;42.134;24.708;2023-04-15T04:40:08;98831.53;;;12.34;99.48
2681;BME280;1350;42.134;24.708;2023-04-15T04:42:35;98835.72;;;12.13;97.99
2681;BME280;1350;42.134;24.708;2023-04-15T04:45:02;98851.25;;;12.19;97.38
2681;BME280;1350;42.134;24.708;2023-04-15T04:47:29;98841.16;;;12.60;96.01
2681;BME280;1350;42.134;24.708;2023-04-15T04:49:56;98833.34;;;13.05;92.47
2681;BME280;1350;42.134;24.708;2023-04-15T04:52:24;98825.69;;;13.59;89.60
2681;BME280;1350;42.134;24.708;2023-04-15T04:54:50;98835.09;;;14.09;85.91
2681;BME280;1350;42.134;24.708;2023-04-15T04:57:17;98831.13;;;14.36;82.44
2681;BME280;1350;42.134;24.708;2023-04-15T04:59:44;98837.75;;;14.75;80.00
2681;BME280;1350;42.134;24.708;2023-04-15T05:02:10;98832.66;;;15.14;76.66
2681;BME280;1350;42.134;24.708;2023-04-15T05:04:37;98834.25;;;15.49;74.63
2681;BME280;1350;42.134;24.708;2023-04-15T05:07:04;98832.34;;;16.01;72.19
2681;BME280;1350;42.134;24.708;2023-04-15T05:09:32;98836.28;;;16.48;69.54
2681;BME280;1350;42.134;24.708;2023-04-15T05:12:01;98825.72;;;17.05;68.23
2681;BME280;1350;42.134;24.708;2023-04-15T05:14:27;98835.59;;;17.43;65.29
2681;BME280;1350;42.134;24.708;2023-04-15T05:16:54;98826.25;;;17.94;62.91
2681;BME280;1350;42.134;24.708;2023-04-15T05:19:21;98823.91;;;18.28;61.11
2681;BME280;1350;42.134;24.708;2023-04-15T05:21:47;98825.00;;;18.99;59.91
2681;BME280;1350;42.134;24.708;2023-04-15T05:24:14;98827.50;;;19.27;57.46
2681;BME280;1350;42.134;24.708;2023-04-15T05:26:42;98832.94;;;19.70;57.31
2681;BME280;1350;42.134;24.708;2023-04-15T05:29:09;98832.72;;;19.81;55.81
2681;BME280;1350;42.134;24.708;2023-04-15T05:31:36;98836.91;;;20.01;55.32
2681;BME280;1350;42.134;24.708;2023-04-15T05:34:03;98848.66;;;20.18;54.35
2681;BME280;1350;42.134;24.708;2023-04-15T05:36:29;98858.78;;;19.63;54.28
2681;BME280;1350;42.134;24.708;2023-04-15T05:38:57;98858.72;;;18.84;55.05
2681;BME280;1350;42.134;24.708;2023-04-15T05:41:23;98859.94;;;19.16;55.63
2681;BME280;1350;42.134;24.708;2023-04-15T05:43:52;98865.66;;;20.01;54.77
2681;BME280;1350;42.134;24.708;2023-04-15T05:46:18;98876.78;;;20.24;53.74
2681;BME280;1350;42.134;24.708;2023-04-15T05:48:45;98874.16;;;20.65;53.31
2681;BME280;1350;42.134;24.708;2023-04-15T05:51:12;98881.47;;;21.06;52.01
2681;BME280;1350;42.134;24.708;2023-04-15T05:53:39;98881.53;;;20.89;51.10
2681;BME280;1350;42.134;24.708;2023-04-15T05:56:06;98881.03;;;21.27;51.19
2681;BME280;1350;42.134;24.708;2023-04-15T05:58:33;98883.59;;;21.36;51.03
2681;BME280;1350;42.134;24.708;2023-04-15T06:01:01;98879.00;;;21.21;50.89
2681;BME280;1350;42.134;24.708;2023-04-15T06:03:28;98887.94;;;21.21;50.32
2681;BME280;1350;42.134;24.708;2023-04-15T06:05:55;98886.81;;;21.56;49.87
2681;BME280;1350;42.134;24.708;2023-04-15T06:08:21;98889.66;;;21.46;49.30
2681;BME280;1350;42.134;24.708;2023-04-15T06:10:48;98895.66;;;21.90;48.98
2681;BME280;1350;42.134;24.708;2023-04-15T06:13:15;98891.72;;;21.52;49.58
2681;BME280;1350;42.134;24.708;2023-04-15T06:15:42;98895.28;;;21.03;49.94
2681;BME280;1350;42.134;24.708;2023-04-15T06:18:10;98900.66;;;20.95;50.73
2681;BME280;1350;42.134;24.708;2023-04-15T06:20:37;98896.44;;;21.01;51.57
2681;BME280;1350;42.134;24.708;2023-04-15T06:23:04;98897.78;;;20.97;52.54
2681;BME280;1350;42.134;24.708;2023-04-15T06:25:31;98901.53;;;20.78;52.50
2681;BME280;1350;42.134;24.708;2023-04-15T06:27:58;98903.22;;;21.05;52.74
2681;BME280;1350;42.134;24.708;2023-04-15T06:30:25;98906.03;;;21.37;52.49
2681;BME280;1350;42.134;24.708;2023-04-15T06:32:51;98900.25;;;22.22;51.55
2681;BME280;1350;42.134;24.708;2023-04-15T06:35:20;98910.59;;;22.89;50.65
2681;BME280;1350;42.134;24.708;2023-04-15T06:37:47;98906.72;;;23.22;49.52
2681;BME280;1350;42.134;24.708;2023-04-15T06:40:14;98896.22;;;23.88;50.43
2681;BME280;1350;42.134;24.708;2023-04-15T06:42:41;98899.78;;;23.89;48.94
2681;BME280;1350;42.134;24.708;2023-04-15T06:45:08;98902.03;;;23.55;50.06
2681;BME280;1350;42.134;24.708;2023-04-15T06:47:35;98902.19;;;23.31;50.80
2681;BME280;1350;42.134;24.708;2023-04-15T06:50:02;98903.47;;;23.96;50.04
2681;BME280;1350;42.134;24.708;2023-04-15T06:52:30;98917.19;;;24.17;49.39
2681;BME280;1350;42.134;24.708;2023-04-15T06:54:57;98906.81;;;24.57;49.16
2681;BME280;1350;42.134;24.708;2023-04-15T06:57:25;98902.75;;;24.91;49.33
2681;BME280;1350;42.134;24.708;2023-04-15T06:59:53;98910.97;;;25.41;48.58
2681;BME280;1350;42.134;24.708;2023-04-15T07:02:20;98900.03;;;25.05;49.08
2681;BME280;1350;42.134;24.708;2023-04-15T07:04:46;98904.63;;;24.75;49.57
2681;BME280;1350;42.134;24.708;2023-04-15T07:07:13;98908.44;;;25.25;49.26
2681;BME280;1350;42.134;24.708;2023-04-15T07:09:43;98912.94;;;24.88;49.57
2681;BME280;1350;42.134;24.708;2023-04-15T07:12:09;98911.09;;;24.52;50.76
2681;BME280;1350;42.134;24.708;2023-04-15T07:14:36;98916.09;;;24.63;50.18
2681;BME280;1350;42.134;24.708;2023-04-15T07:17:03;98916.47;;;24.60;50.03
2681;BME280;1350;42.134;24.708;2023-04-15T07:19:30;98924.25;;;25.07;49.53
2681;BME280;1350;42.134;24.708;2023-04-15T07:21:56;98925.59;;;25.40;48.97
2681;BME280;1350;42.134;24.708;2023-04-15T07:24:23;98921.22;;;25.95;47.90
2681;BME280;1350;42.134;24.708;2023-04-15T07:26:52;98923.31;;;26.14;47.96
2681;BME280;1350;42.134;24.708;2023-04-15T07:29:19;98933.41;;;26.20;47.08
2681;BME280;1350;42.134;24.708;2023-04-15T07:31:46;98937.81;;;26.21;47.09
2681;BME280;1350;42.134;24.708;2023-04-15T07:34:13;98941.94;;;25.82;47.31
2681;BME280;1350;42.134;24.708;2023-04-15T07:36:40;98931.38;;;24.41;49.73
2681;BME280;1350;42.134;24.708;2023-04-15T07:39:07;98925.28;;;24.91;49.29
2681;BME280;1350;42.134;24.708;2023-04-15T07:41:34;98922.94;;;24.88;49.12
2681;BME280;1350;42.134;24.708;2023-04-15T07:44:02;98927.81;;;24.92;49.93
2681;BME280;1350;42.134;24.708;2023-04-15T07:46:29;98925.22;;;25.14;49.32
2681;BME280;1350;42.134;24.708;2023-04-15T07:48:56;98919.94;;;25.27;48.54
2681;BME280;1350;42.134;24.708;2023-04-15T07:51:23;98918.84;;;25.36;49.13
2681;BME280;1350;42.134;24.708;2023-04-15T07:53:50;98927.63;;;25.23;47.84
2681;BME280;1350;42.134;24.708;2023-04-15T07:56:17;98913.50;;;25.78;47.65
2681;BME280;1350;42.134;24.708;2023-04-15T07:58:43;98925.13;;;25.72;48.49
2681;BME280;1350;42.134;24.708;2023-04-15T08:01:12;98925.84;;;25.16;48.76
2681;BME280;1350;42.134;24.708;2023-04-15T08:03:38;98924.00;;;25.66;48.40
2681;BME280;1350;42.134;24.708;2023-04-15T08:06:05;98922.03;;;26.10;47.36
2681;BME280;1350;42.134;24.708;2023-04-15T08:08:32;98921.06;;;25.82;48.05
2681;BME280;1350;42.134;24.708;2023-04-15T08:11:00;98917.38;;;26.04;48.12
2681;BME280;1350;42.134;24.708;2023-04-15T08:13:26;98917.81;;;26.29;46.55
2681;BME280;1350;42.134;24.708;2023-04-15T08:16:17;98916.97;;;25.72;47.21
2681;BME280;1350;42.134;24.708;2023-04-15T08:18:44;98926.47;;;25.61;47.53
2681;BME280;1350;42.134;24.708;2023-04-15T08:21:11;98922.44;;;26.14;48.16
2681;BME280;1350;42.134;24.708;2023-04-15T08:23:38;98917.78;;;26.50;45.53
2681;BME280;1350;42.134;24.708;2023-04-15T08:26:05;98922.56;;;27.03;45.77
2681;BME280;1350;42.134;24.708;2023-04-15T08:28:33;98913.41;;;27.17;46.41
2681;BME280;1350;42.134;24.708;2023-04-15T08:31:00;98919.66;;;26.77;45.34
2681;BME280;1350;42.134;24.708;2023-04-15T08:33:28;98913.66;;;26.61;45.60
2681;BME280;1350;42.134;24.708;2023-04-15T08:35:55;98916.75;;;26.79;45.13
2681;BME280;1350;42.134;24.708;2023-04-15T08:38:22;98903.59;;;27.16;44.32
2681;BME280;1350;42.134;24.708;2023-04-15T08:40:48;98904.00;;;27.13;43.96
2681;BME280;1350;42.134;24.708;2023-04-15T08:43:19;98902.53;;;26.83;43.08
2681;BME280;1350;42.134;24.708;2023-04-15T08:45:47;98907.84;;;26.64;44.08
2681;BME280;1350;42.134;24.708;2023-04-15T08:48:16;98903.97;;;26.03;44.81
2681;BME280;1350;42.134;24.708;2023-04-15T08:50:45;98908.25;;;24.97;45.92
2681;BME280;1350;42.134;24.708;2023-04-15T08:53:12;98908.75;;;25.86;46.73
2681;BME280;1350;42.134;24.708;2023-04-15T08:55:42;98908.34;;;26.52;45.34
2681;BME280;1350;42.134;24.708;2023-04-15T08:58:09;98913.06;;;26.93;43.87
2681;BME280;1350;42.134;24.708;2023-04-15T09:00:36;98915.03;;;26.01;43.68
2681;BME280;1350;42.134;24.708;2023-04-15T09:03:04;98916.50;;;26.04;44.55
2681;BME280;1350;42.134;24.708;2023-04-15T09:05:31;98908.97;;;26.69;43.85
2681;BME280;1350;42.134;24.708;2023-04-15T09:08:00;98903.97;;;26.52;42.30
2681;BME280;1350;42.134;24.708;2023-04-15T09:10:28;98906.88;;;26.01;42.72
2681;BME280;1350;42.134;24.708;2023-04-15T09:12:55;98902.41;;;26.64;42.95
2681;BME280;1350;42.134;24.708;2023-04-15T09:15:24;98899.38;;;26.24;43.45
2681;BME280;1350;42.134;24.708;2023-04-15T09:17:52;98909.56;;;25.45;43.89
2681;BME280;1350;42.134;24.708;2023-04-15T09:20:19;98898.84;;;25.58;42.16
2681;BME280;1350;42.134;24.708;2023-04-15T09:22:47;98903.59;;;24.76;41.20
2681;BME280;1350;42.134;24.708;2023-04-15T09:25:30;98898.44;;;24.67;41.37
2681;BME280;1350;42.134;24.708;2023-04-15T09:27:58;98898.44;;;24.67;41.11
2681;BME280;1350;42.134;24.708;2023-04-15T09:30:26;98895.63;;;24.89;40.23
2681;BME280;1350;42.134;24.708;2023-04-15T09:32:54;98890.94;;;25.27;39.42
2681;BME280;1350;42.134;24.708;2023-04-15T09:35:22;98886.34;;;25.42;39.95
2681;BME280;1350;42.134;24.708;2023-04-15T09:37:50;98892.53;;;25.72;39.65
2681;BME280;1350;42.134;24.708;2023-04-15T09:40:32;98883.50;;;25.50;39.42
2681;BME280;1350;42.134;24.708;2023-04-15T09:42:59;98874.31;;;25.01;39.68
2681;BME280;1350;42.134;24.708;2023-04-15T09:45:27;98867.75;;;25.25;40.22
2681;BME280;1350;42.134;24.708;2023-04-15T09:47:54;98875.38;;;24.34;40.67
2681;BME280;1350;42.134;24.708;2023-04-15T09:50:26;98871.59;;;24.72;40.99
2681;BME280;1350;42.134;24.708;2023-04-15T09:52:53;98874.81;;;25.40;40.61
2681;BME280;1350;42.134;24.708;2023-04-15T09:55:20;98871.66;;;25.93;39.45
2681;BME280;1350;42.134;24.708;2023-04-15T09:57:48;98868.47;;;26.11;39.28
2681;BME280;1350;42.134;24.708;2023-04-15T10:00:15;98873.22;;;25.81;40.58
2681;BME280;1350;42.134;24.708;2023-04-15T10:02:42;98869.41;;;26.18;40.48
2681;BME280;1350;42.134;24.708;2023-04-15T10:05:10;98866.72;;;24.82;41.76
2681;BME280;1350;42.134;24.708;2023-04-15T10:07:39;98860.28;;;23.18;45.42
2681;BME280;1350;42.134;24.708;2023-04-15T10:10:07;98861.84;;;22.66;46.43
2681;BME280;1350;42.134;24.708;2023-04-15T10:12:36;98856.97;;;22.30;46.76
2681;BME280;1350;42.134;24.708;2023-04-15T10:15:05;98852.59;;;23.61;45.14
2681;BME280;1350;42.134;24.708;2023-04-15T10:17:35;98842.94;;;24.55;44.13
2681;BME280;1350;42.134;24.708;2023-04-15T10:20:03;98850.59;;;25.10;43.01
2681;BME280;1350;42.134;24.708;2023-04-15T10:22:30;98840.09;;;24.19;42.96
2681;BME280;1350;42.134;24.708;2023-04-15T10:24:58;98831.34;;;24.32;43.27
2681;BME280;1350;42.134;24.708;2023-04-15T10:27:26;98834.63;;;24.27;43.02
2681;BME280;1350;42.134;24.708;2023-04-15T10:29:53;98845.34;;;23.31;42.04
2681;BME280;1350;42.134;24.708;2023-04-15T10:32:21;98833.97;;;22.50;43.35
2681;BME280;1350;42.134;24.708;2023-04-15T10:34:50;98840.59;;;22.31;43.32
2681;BME280;1350;42.134;24.708;2023-04-15T10:37:21;98843.16;;;22.87;41.71
2681;BME280;1350;42.134;24.708;2023-04-15T10:39:48;98839.13;;;22.13;43.42
2681;BME280;1350;42.134;24.708;2023-04-15T10:42:16;98832.03;;;22.82;42.71
2681;BME280;1350;42.134;24.708;2023-04-15T10:44:44;98824.34;;;23.33;42.38
2681;BME280;1350;42.134;24.708;2023-04-15T10:47:12;98817.03;;;23.64;41.60
2681;BME280;1350;42.134;24.708;2023-04-15T10:49:47;98819.63;;;23.94;40.27
2681;BME280;1350;42.134;24.708;2023-04-15T10:52:15;98818.13;;;23.55;40.92
2681;BME280;1350;42.134;24.708;2023-04-15T10:54:43;98807.31;;;22.93;42.09
2681;BME280;1350;42.134;24.708;2023-04-15T10:57:14;98812.16;;;23.59;41.79
2681;BME280;1350;42.134;24.708;2023-04-15T11:00:02;98805.91;;;23.59;41.83
2681;BME280;1350;42.134;24.708;2023-04-15T11:02:40;98809.03;;;23.48;43.34
2681;BME280;1350;42.134;24.708;2023-04-15T11:05:08;98816.38;;;23.00;45.12
2681;BME280;1350;42.134;24.708;2023-04-15T11:07:45;98801.09;;;23.46;44.74
2681;BME280;1350;42.134;24.708;2023-04-15T11:10:52;98805.69;;;24.05;44.09
2681;BME280;1350;42.134;24.708;2023-04-15T11:13:26;98807.31;;;22.55;45.66
2681;BME280;1350;42.134;24.708;2023-04-15T11:15:57;98802.66;;;22.09;46.86
2681;BME280;1350;42.134;24.708;2023-04-15T11:18:30;98787.94;;;22.27;46.97
2681;BME280;1350;42.134;24.708;2023-04-15T11:21:03;98788.00;;;23.04;45.61
2681;BME280;1350;42.134;24.708;2023-04-15T11:23:33;98787.75;;;22.83;45.17
2681;BME280;1350;42.134;24.708;2023-04-15T11:26:01;98796.00;;;22.51;45.74
2681;BME280;1350;42.134;24.708;2023-04-15T11:28:30;98785.13;;;22.67;45.29
2681;BME280;1350;42.134;24.708;2023-04-15T11:31:02;98785.91;;;22.29;46.68
2681;BME280;1350;42.134;24.708;2023-04-15T11:33:31;98792.47;;;22.51;46.29
2681;BME280;1350;42.134;24.708;2023-04-15T11:36:00;98798.50;;;22.61;46.84
2681;BME280;1350;42.134;24.708;2023-04-15T11:38:27;98782.72;;;23.11;46.12
2681;BME280;1350;42.134;24.708;2023-04-15T11:40:56;98767.50;;;22.79;45.84
2681;BME280;1350;42.134;24.708;2023-04-15T11:43:22;98775.66;;;22.63;46.72
2681;BME280;1350;42.134;24.708;2023-04-15T11:45:51;98766.94;;;22.53;46.73
2681;BME280;1350;42.134;24.708;2023-04-15T11:48:19;98765.63;;;22.88;46.88
2681;BME280;1350;42.134;24.708;2023-04-15T11:50:52;98763.59;;;22.82;46.44
2681;BME280;1350;42.134;24.708;2023-04-15T11:53:20;98758.28;;;22.66;47.09
2681;BME280;1350;42.134;24.708;2023-04-15T11:55:49;98758.09;;;22.67;47.35
2681;BME280;1350;42.134;24.708;2023-04-15T11:58:18;98755.03;;;22.16;47.92
2681;BME280;1350;42.134;24.708;2023-04-15T12:00:47;98757.56;;;22.25;48.70
2681;BME280;1350;42.134;24.708;2023-04-15T12:03:20;98745.50;;;21.97;49.24
2681;BME280;1350;42.134;24.708;2023-04-15T12:06:15;98736.38;;;22.53;48.65
2681;BME280;1350;42.134;24.708;2023-04-15T12:09:08;98743.00;;;22.34;49.25
2681;BME280;1350;42.134;24.708;2023-04-15T12:11:39;98750.38;;;21.94;49.45
2681;BME280;1350;42.134;24.708;2023-04-15T12:14:09;98743.97;;;21.54;49.97
2681;BME280;1350;42.134;24.708;2023-04-15T12:16:38;98756.44;;;22.04;48.44
2681;BME280;1350;42.134;24.708;2023-04-15T12:19:08;98737.38;;;21.65;48.15
2681;BME280;1350;42.134;24.708;2023-04-15T12:21:37;98758.16;;;21.89;48.65
2681;BME280;1350;42.134;24.708;2023-04-15T12:24:06;98752.94;;;21.87;48.81
2681;BME280;1350;42.134;24.708;2023-04-15T12:26:36;98748.56;;;21.78;49.09
2681;BME280;1350;42.134;24.708;2023-04-15T12:29:05;98740.28;;;21.80;48.75
2681;BME280;1350;42.134;24.708;2023-04-15T12:31:33;98737.91;;;21.60;49.05
2681;BME280;1350;42.134;24.708;2023-04-15T12:34:00;98746.50;;;21.24;49.39
2681;BME280;1350;42.134;24.708;2023-04-15T12:36:28;98747.34;;;21.48;49.87
2681;BME280;1350;42.134;24.708;2023-04-15T12:39:00;98738.22;;;21.90;49.77
2681;BME280;1350;42.134;24.708;2023-04-15T12:41:27;98734.44;;;22.23;50.32
2681;BME280;1350;42.134;24.708;2023-04-15T12:43:55;98729.13;;;21.66;50.89
2681;BME280;1350;42.134;24.708;2023-04-15T12:46:22;98737.72;;;21.70;51.28
2681;BME280;1350;42.134;24.708;2023-04-15T12:48:49;98741.13;;;21.48;51.53
2681;BME280;1350;42.134;24.708;2023-04-15T12:51:16;98741.59;;;20.95;52.71
2681;BME280;1350;42.134;24.708;2023-04-15T12:53:43;98749.19;;;21.16;52.97
2681;BME280;1350;42.134;24.708;2023-04-15T12:56:09;98746.38;;;21.49;52.29
2681;BME280;1350;42.134;24.708;2023-04-15T12:58:36;98752.25;;;21.29;52.81
2681;BME280;1350;42.134;24.708;2023-04-15T13:01:04;98751.06;;;21.15;53.65
2681;BME280;1350;42.134;24.708;2023-04-15T13:03:31;98751.72;;;21.01;54.55
2681;BME280;1350;42.134;24.708;2023-04-15T13:05:58;98739.97;;;20.69;55.63
2681;BME280;1350;42.134;24.708;2023-04-15T13:08:26;98748.44;;;20.90;55.44
2681;BME280;1350;42.134;24.708;2023-04-15T13:10:53;98744.53;;;20.76;55.67